sensor_id;sensor_type;location;lat;lon;timestamp;temperature;humidity
9437;DHT22;4757;59.334;18.034;2022-11-15T00:01:15;7.60;99.90
9437;DHT22;4757;59.334;18.034;2022-11-15T00:03:43;7.60;99.90
9437;DHT22;4757;59.334;18.034;2022-11-15T00:06:11;7.70;99.90
9437;DHT22;4757;59.334;18.034;2022-11-15T00:08:38;7.60;99.90
9437;DHT22;4757;59.334;18.034;2022-11-15T00:11:05;7.60;99.90
9437;DHT22;4757;59.334;18.034;2022-11-15T00:13:34;7.60;99.90
9437;DHT22;4757;59.334;18.034;2022-11-15T00:16:02;7.60;99.90
9437;DHT22;4757;59.334;18.034;2022-11-15T00:18:30;7.50;99.90
9437;DHT22;4757;59.334;18.034;2022-11-15T00:21:04;7.50;99.90
9437;DHT22;4757;59.334;18.034;2022-11-15T00:23:33;7.50;99.90
9437;DHT22;4757;59.334;18.034;2022-11-15T00:26:00;7.40;99.90
9437;DHT22;4757;59.334;18.034;2022-11-15T00:28:28;7.40;99.90
9437;DHT22;4757;59.334;18.034;2022-11-15T00:31:03;7.40;99.90
9437;DHT22;4757;59.334;18.034;2022-11-15T00:33:33;7.40;99.90
9437;DHT22;4757;59.334;18.034;2022-11-15T00:36:05;7.30;99.90
9437;DHT22;4757;59.334;18.034;2022-11-15T00:38:34;7.20;99.90
9437;DHT22;4757;59.334;18.034;2022-11-15T00:41:05;7.20;99.90
9437;DHT22;4757;59.334;18.034;2022-11-15T00:43:36;7.20;99.90
9437;DHT22;4757;59.334;18.034;2022-11-15T00:46:03;7.20;99.90
9437;DHT22;4757;59.334;18.034;2022-11-15T00:48:31;7.20;99.90
9437;DHT22;4757;59.334;18.034;2022-11-15T00:51:01;7.20;99.90
9437;DHT22;4757;59.334;18.034;2022-11-15T00:53:28;7.20;99.90
9437;DHT22;4757;59.334;18.034;2022-11-15T00:55:56;7.20;99.90
9437;DHT22;4757;59.334;18.034;2022-11-15T00:58:23;7.30;99.90
9437;DHT22;4757;59.334;18.034;2022-11-15T01:00:50;7.20;99.90
9437;DHT22;4757;59.334;18.034;2022-11-15T01:03:17;7.30;99.90
9437;DHT22;4757;59.334;18.034;2022-11-15T01:05:44;7.30;99.90
9437;DHT22;4757;59.334;18.034;2022-11-15T01:08:15;7.10;99.90
9437;DHT22;4757;59.334;18.034;2022-11-15T01:10:42;7.10;99.90
9437;DHT22;4757;59.334;18.034;2022-11-15T01:13:15;7.10;99.90
9437;DHT22;4757;59.334;18.034;2022-11-15T01:15:42;7.10;99.90
9437;DHT22;4757;59.334;18.034;2022-11-15T01:18:10;7.10;99.90
9437;DHT22;4757;59.334;18.034;2022-11-15T01:20:41;7.10;99.90
9437;DHT22;4757;59.334;18.034;2022-11-15T01:23:09;7.20;99.90
9437;DHT22;4757;59.334;18.034;2022-11-15T01:25:36;7.10;99.90
9437;DHT22;4757;59.334;18.034;2022-11-15T01:28:04;7.10;99.90
9437;DHT22;4757;59.334;18.034;2022-11-15T01:30:33;7.00;99.90
9437;DHT22;4757;59.334;18.034;2022-11-15T01:33:00;7.00;99.90
9437;DHT22;4757;59.334;18.034;2022-11-15T01:35:27;7.00;99.90
9437;DHT22;4757;59.334;18.034;2022-11-15T01:37:54;6.90;99.90
9437;DHT22;4757;59.334;18.034;2022-11-15T01:40:22;6.80;99.90
9437;DHT22;4757;59.334;18.034;2022-11-15T01:42:49;6.80;99.90
9437;DHT22;4757;59.334;18.034;2022-11-15T01:45:16;6.80;99.90
9437;DHT22;4757;59.334;18.034;2022-11-15T01:47:47;6.80;99.90
9437;DHT22;4757;59.334;18.034;2022-11-15T01:50:21;6.80;99.90
9437;DHT22;4757;59.334;18.034;2022-11-15T01:52:49;6.60;99.90
9437;DHT22;4757;59.334;18.034;2022-11-15T01:55:20;6.70;99.90
9437;DHT22;4757;59.334;18.034;2022-11-15T01:57:51;6.60;99.90
9437;DHT22;4757;59.334;18.034;2022-11-15T02:00:20;6.60;99.90
9437;DHT22;4757;59.334;18.034;2022-11-15T02:02:47;6.50;99.90
9437;DHT22;4757;59.334;18.034;2022-11-15T02:05:14;6.60;99.90
9437;DHT22;4757;59.334;18.034;2022-11-15T02:07:42;6.50;99.90
9437;DHT22;4757;59.334;18.034;2022-11-15T02:10:17;6.60;99.90
9437;DHT22;4757;59.334;18.034;2022-11-15T02:12:45;6.50;99.90
9437;DHT22;4757;59.334;18.034;2022-11-15T02:15:12;6.50;99.90
9437;DHT22;4757;59.334;18.034;2022-11-15T02:17:52;6.50;99.90
9437;DHT22;4757;59.334;18.034;2022-11-15T02:31:47;6.50;99.90
9437;DHT22;4757;59.334;18.034;2022-11-15T02:37:15;6.50;99.90
9437;DHT22;4757;59.334;18.034;2022-11-15T02:42:33;6.40;99.90
9437;DHT22;4757;59.334;18.034;2022-11-15T02:45:28;6.30;99.90
9437;DHT22;4757;59.334;18.034;2022-11-15T02:47:57;6.30;99.90
9437;DHT22;4757;59.334;18.034;2022-11-15T02:50:28;6.20;99.90
9437;DHT22;4757;59.334;18.034;2022-11-15T02:52:56;6.20;99.90
9437;DHT22;4757;59.334;18.034;2022-11-15T02:55:32;6.20;99.90
9437;DHT22;4757;59.334;18.034;2022-11-15T02:58:32;6.30;99.90
9437;DHT22;4757;59.334;18.034;2022-11-15T03:01:22;6.20;99.90
9437;DHT22;4757;59.334;18.034;2022-11-15T03:06:32;6.00;99.90
9437;DHT22;4757;59.334;18.034;2022-11-15T03:11:43;6.00;99.90
9437;DHT22;4757;59.334;18.034;2022-11-15T03:14:35;5.90;99.90
9437;DHT22;4757;59.334;18.034;2022-11-15T03:17:17;5.80;99.90
9437;DHT22;4757;59.334;18.034;2022-11-15T03:19:54;5.90;99.90
9437;DHT22;4757;59.334;18.034;2022-11-15T03:22:24;5.90;99.90
9437;DHT22;4757;59.334;18.034;2022-11-15T03:24:57;5.80;99.90
9437;DHT22;4757;59.334;18.034;2022-11-15T03:27:29;5.80;99.90
9437;DHT22;4757;59.334;18.034;2022-11-15T03:30:02;5.70;99.90
9437;DHT22;4757;59.334;18.034;2022-11-15T03:32:34;5.70;99.90
9437;DHT22;4757;59.334;18.034;2022-11-15T03:35:07;5.70;99.90
9437;DHT22;4757;59.334;18.034;2022-11-15T03:40:10;5.70;99.90
9437;DHT22;4757;59.334;18.034;2022-11-15T03:43:10;5.70;99.90
9437;DHT22;4757;59.334;18.034;2022-11-15T03:45:52;5.60;99.90
9437;DHT22;4757;59.334;18.034;2022-11-15T03:48:24;5.60;99.90
9437;DHT22;4757;59.334;18.034;2022-11-15T03:50:52;5.60;99.90
9437;DHT22;4757;59.334;18.034;2022-11-15T03:53:20;5.70;99.90
9437;DHT22;4757;59.334;18.034;2022-11-15T03:55:47;5.70;99.90
9437;DHT22;4757;59.334;18.034;2022-11-15T03:58:14;5.70;99.90
9437;DHT22;4757;59.334;18.034;2022-11-15T04:00:41;5.70;99.90
9437;DHT22;4757;59.334;18.034;2022-11-15T04:03:08;5.80;99.90
9437;DHT22;4757;59.334;18.034;2022-11-15T04:05:35;5.80;99.90
9437;DHT22;4757;59.334;18.034;2022-11-15T04:08:02;5.80;99.90
9437;DHT22;4757;59.334;18.034;2022-11-15T04:10:29;5.80;99.90
9437;DHT22;4757;59.334;18.034;2022-11-15T04:13:01;5.80;99.90
9437;DHT22;4757;59.334;18.034;2022-11-15T04:15:32;5.80;99.90
9437;DHT22;4757;59.334;18.034;2022-11-15T04:17:59;5.80;99.90
9437;DHT22;4757;59.334;18.034;2022-11-15T04:20:28;5.90;99.90
9437;DHT22;4757;59.334;18.034;2022-11-15T04:23:17;5.90;99.90
9437;DHT22;4757;59.334;18.034;2022-11-15T04:26:05;5.90;99.90
9437;DHT22;4757;59.334;18.034;2022-11-15T04:28:34;5.90;99.90
9437;DHT22;4757;59.334;18.034;2022-11-15T04:31:01;6.00;99.90
9437;DHT22;4757;59.334;18.034;2022-11-15T04:33:28;6.00;99.90
9437;DHT22;4757;59.334;18.034;2022-11-15T04:35:55;5.90;99.90
9437;DHT22;4757;59.334;18.034;2022-11-15T04:38:41;5.80;99.90
9437;DHT22;4757;59.334;18.034;2022-11-15T04:41:08;5.90;99.90
9437;DHT22;4757;59.334;18.034;2022-11-15T04:43:35;6.00;99.90
9437;DHT22;4757;59.334;18.034;2022-11-15T04:46:02;6.00;99.90
9437;DHT22;4757;59.334;18.034;2022-11-15T04:48:29;6.10;99.90
9437;DHT22;4757;59.334;18.034;2022-11-15T04:50:56;6.10;99.90
9437;DHT22;4757;59.334;18.034;2022-11-15T04:53:23;5.90;99.90
9437;DHT22;4757;59.334;18.034;2022-11-15T04:55:50;5.70;99.90
9437;DHT22;4757;59.334;18.034;2022-11-15T04:58:19;5.70;99.90
9437;DHT22;4757;59.334;18.034;2022-11-15T05:00:46;5.80;99.90
9437;DHT22;4757;59.334;18.034;2022-11-15T05:03:14;5.80;99.90
9437;DHT22;4757;59.334;18.034;2022-11-15T05:06:00;5.80;99.90
9437;DHT22;4757;59.334;18.034;2022-11-15T05:08:27;5.90;99.90
9437;DHT22;4757;59.334;18.034;2022-11-15T05:10:54;5.90;99.90
9437;DHT22;4757;59.334;18.034;2022-11-15T05:13:22;5.90;99.90
9437;DHT22;4757;59.334;18.034;2022-11-15T05:15:48;5.90;99.90
9437;DHT22;4757;59.334;18.034;2022-11-15T05:18:16;6.00;99.90
9437;DHT22;4757;59.334;18.034;2022-11-15T05:20:49;5.90;99.90
9437;DHT22;4757;59.334;18.034;2022-11-15T05:23:17;6.00;99.90
9437;DHT22;4757;59.334;18.034;2022-11-15T05:25:44;5.90;99.90
9437;DHT22;4757;59.334;18.034;2022-11-15T05:28:12;5.90;99.90
9437;DHT22;4757;59.334;18.034;2022-11-15T05:30:39;6.00;99.90
9437;DHT22;4757;59.334;18.034;2022-11-15T05:33:06;6.10;99.90
9437;DHT22;4757;59.334;18.034;2022-11-15T05:35:41;6.00;99.90
9437;DHT22;4757;59.334;18.034;2022-11-15T05:38:10;6.00;99.90
9437;DHT22;4757;59.334;18.034;2022-11-15T05:40:37;6.00;99.90
9437;DHT22;4757;59.334;18.034;2022-11-15T05:43:05;6.10;99.90
9437;DHT22;4757;59.334;18.034;2022-11-15T05:45:33;6.10;99.90
9437;DHT22;4757;59.334;18.034;2022-11-15T05:48:05;6.00;99.90
9437;DHT22;4757;59.334;18.034;2022-11-15T05:50:33;6.10;99.90
9437;DHT22;4757;59.334;18.034;2022-11-15T05:53:01;6.10;99.90
9437;DHT22;4757;59.334;18.034;2022-11-15T05:55:31;6.10;99.90
9437;DHT22;4757;59.334;18.034;2022-11-15T05:57:58;6.20;99.90
9437;DHT22;4757;59.334;18.034;2022-11-15T06:00:26;6.20;99.90
9437;DHT22;4757;59.334;18.034;2022-11-15T06:02:53;6.20;99.90
9437;DHT22;4757;59.334;18.034;2022-11-15T06:05:20;6.20;99.90
9437;DHT22;4757;59.334;18.034;2022-11-15T06:07:47;6.10;99.90
9437;DHT22;4757;59.334;18.034;2022-11-15T06:10:14;6.30;99.90
9437;DHT22;4757;59.334;18.034;2022-11-15T06:12:41;6.30;99.90
9437;DHT22;4757;59.334;18.034;2022-11-15T06:15:10;6.20;99.90
9437;DHT22;4757;59.334;18.034;2022-11-15T06:17:38;6.20;99.90
9437;DHT22;4757;59.334;18.034;2022-11-15T06:20:06;6.20;99.90
9437;DHT22;4757;59.334;18.034;2022-11-15T06:22:33;6.20;99.90
9437;DHT22;4757;59.334;18.034;2022-11-15T06:25:01;6.30;99.90
9437;DHT22;4757;59.334;18.034;2022-11-15T06:27:31;6.30;99.90
9437;DHT22;4757;59.334;18.034;2022-11-15T06:29:58;6.30;99.90
9437;DHT22;4757;59.334;18.034;2022-11-15T06:32:25;6.40;99.90
9437;DHT22;4757;59.334;18.034;2022-11-15T06:34:52;6.30;99.90
9437;DHT22;4757;59.334;18.034;2022-11-15T06:37:19;6.40;99.90
9437;DHT22;4757;59.334;18.034;2022-11-15T06:39:46;6.40;99.90
9437;DHT22;4757;59.334;18.034;2022-11-15T06:42:17;6.50;99.90
9437;DHT22;4757;59.334;18.034;2022-11-15T06:44:45;6.50;99.90
9437;DHT22;4757;59.334;18.034;2022-11-15T06:47:12;6.50;99.90
9437;DHT22;4757;59.334;18.034;2022-11-15T06:49:40;6.60;99.90
9437;DHT22;4757;59.334;18.034;2022-11-15T06:52:07;6.70;99.90
9437;DHT22;4757;59.334;18.034;2022-11-15T06:54:34;6.80;99.90
9437;DHT22;4757;59.334;18.034;2022-11-15T06:57:01;6.70;99.90
9437;DHT22;4757;59.334;18.034;2022-11-15T06:59:30;6.60;99.90
9437;DHT22;4757;59.334;18.034;2022-11-15T07:02:06;6.70;99.90
9437;DHT22;4757;59.334;18.034;2022-11-15T07:04:34;6.80;99.90
9437;DHT22;4757;59.334;18.034;2022-11-15T07:07:02;6.80;99.90
9437;DHT22;4757;59.334;18.034;2022-11-15T07:09:29;6.70;99.90
9437;DHT22;4757;59.334;18.034;2022-11-15T07:11:57;6.80;99.90
9437;DHT22;4757;59.334;18.034;2022-11-15T07:14:30;6.80;99.90
9437;DHT22;4757;59.334;18.034;2022-11-15T07:16:57;6.80;99.90
9437;DHT22;4757;59.334;18.034;2022-11-15T07:19:24;6.70;99.90
9437;DHT22;4757;59.334;18.034;2022-11-15T07:21:51;6.80;99.90
9437;DHT22;4757;59.334;18.034;2022-11-15T07:24:19;6.80;99.90
9437;DHT22;4757;59.334;18.034;2022-11-15T07:26:47;6.80;99.90
9437;DHT22;4757;59.334;18.034;2022-11-15T07:29:15;7.00;99.90
9437;DHT22;4757;59.334;18.034;2022-11-15T07:31:42;7.00;99.90
9437;DHT22;4757;59.334;18.034;2022-11-15T07:34:10;6.90;99.90
9437;DHT22;4757;59.334;18.034;2022-11-15T07:36:37;6.90;99.90
9437;DHT22;4757;59.334;18.034;2022-11-15T07:39:04;6.90;99.90
9437;DHT22;4757;59.334;18.034;2022-11-15T07:41:31;6.90;99.90
9437;DHT22;4757;59.334;18.034;2022-11-15T07:43:58;7.00;99.90
9437;DHT22;4757;59.334;18.034;2022-11-15T07:46:26;6.90;99.90
9437;DHT22;4757;59.334;18.034;2022-11-15T07:48:54;6.80;99.90
9437;DHT22;4757;59.334;18.034;2022-11-15T07:51:23;6.70;99.90
9437;DHT22;4757;59.334;18.034;2022-11-15T07:53:51;6.80;99.90
9437;DHT22;4757;59.334;18.034;2022-11-15T07:56:18;6.80;99.90
9437;DHT22;4757;59.334;18.034;2022-11-15T07:58:47;6.80;99.90
9437;DHT22;4757;59.334;18.034;2022-11-15T08:01:14;6.70;99.90
9437;DHT22;4757;59.334;18.034;2022-11-15T08:03:41;6.70;99.90
9437;DHT22;4757;59.334;18.034;2022-11-15T08:06:08;6.80;99.90
9437;DHT22;4757;59.334;18.034;2022-11-15T08:08:35;6.80;99.90
9437;DHT22;4757;59.334;18.034;2022-11-15T08:11:03;6.80;99.90
9437;DHT22;4757;59.334;18.034;2022-11-15T08:13:30;6.90;99.90
9437;DHT22;4757;59.334;18.034;2022-11-15T08:15:59;6.80;99.90
9437;DHT22;4757;59.334;18.034;2022-11-15T08:18:26;6.80;99.90
9437;DHT22;4757;59.334;18.034;2022-11-15T08:20:53;6.80;99.90
9437;DHT22;4757;59.334;18.034;2022-11-15T08:23:20;6.90;99.90
9437;DHT22;4757;59.334;18.034;2022-11-15T08:25:47;6.80;99.90
9437;DHT22;4757;59.334;18.034;2022-11-15T08:28:16;6.80;99.90
9437;DHT22;4757;59.334;18.034;2022-11-15T08:30:43;6.90;99.90
9437;DHT22;4757;59.334;18.034;2022-11-15T08:33:13;6.80;99.90
9437;DHT22;4757;59.334;18.034;2022-11-15T08:35:41;6.70;99.90
9437;DHT22;4757;59.334;18.034;2022-11-15T08:38:09;6.70;99.90
9437;DHT22;4757;59.334;18.034;2022-11-15T08:40:37;6.90;99.90
9437;DHT22;4757;59.334;18.034;2022-11-15T08:43:04;6.90;99.90
9437;DHT22;4757;59.334;18.034;2022-11-15T08:45:33;6.90;99.90
9437;DHT22;4757;59.334;18.034;2022-11-15T08:48:03;6.80;99.90
9437;DHT22;4757;59.334;18.034;2022-11-15T08:50:31;6.80;99.90
9437;DHT22;4757;59.334;18.034;2022-11-15T08:53:07;6.70;99.90
9437;DHT22;4757;59.334;18.034;2022-11-15T08:55:37;6.70;99.90
9437;DHT22;4757;59.334;18.034;2022-11-15T08:58:05;6.80;99.90
9437;DHT22;4757;59.334;18.034;2022-11-15T09:00:33;6.90;99.90
9437;DHT22;4757;59.334;18.034;2022-11-15T09:03:04;6.90;99.90
9437;DHT22;4757;59.334;18.034;2022-11-15T09:05:32;6.70;99.90
9437;DHT22;4757;59.334;18.034;2022-11-15T09:07:59;6.70;99.90
9437;DHT22;4757;59.334;18.034;2022-11-15T09:10:27;6.80;99.90
9437;DHT22;4757;59.334;18.034;2022-11-15T09:12:57;6.80;99.90
9437;DHT22;4757;59.334;18.034;2022-11-15T09:15:24;6.80;99.90
9437;DHT22;4757;59.334;18.034;2022-11-15T09:17:52;6.90;99.90
9437;DHT22;4757;59.334;18.034;2022-11-15T09:20:19;7.00;99.90
9437;DHT22;4757;59.334;18.034;2022-11-15T09:22:46;7.10;99.90
9437;DHT22;4757;59.334;18.034;2022-11-15T09:25:13;7.00;99.90
9437;DHT22;4757;59.334;18.034;2022-11-15T09:27:41;7.10;99.90
9437;DHT22;4757;59.334;18.034;2022-11-15T09:30:08;7.20;99.90
9437;DHT22;4757;59.334;18.034;2022-11-15T09:32:35;7.00;99.90
9437;DHT22;4757;59.334;18.034;2022-11-15T09:35:05;7.10;99.90
9437;DHT22;4757;59.334;18.034;2022-11-15T09:37:32;7.00;99.90
9437;DHT22;4757;59.334;18.034;2022-11-15T09:39:59;7.00;99.90
9437;DHT22;4757;59.334;18.034;2022-11-15T09:42:41;7.10;99.90
9437;DHT22;4757;59.334;18.034;2022-11-15T09:45:17;7.10;99.90
9437;DHT22;4757;59.334;18.034;2022-11-15T09:50:46;7.10;99.90
9437;DHT22;4757;59.334;18.034;2022-11-15T09:53:27;7.00;99.90
9437;DHT22;4757;59.334;18.034;2022-11-15T09:56:21;7.20;99.90
9437;DHT22;4757;59.334;18.034;2022-11-15T10:04:15;7.20;99.90
9437;DHT22;4757;59.334;18.034;2022-11-15T10:06:53;7.20;99.90
9437;DHT22;4757;59.334;18.034;2022-11-15T10:09:42;7.20;99.90
9437;DHT22;4757;59.334;18.034;2022-11-15T10:12:15;7.30;99.90
9437;DHT22;4757;59.334;18.034;2022-11-15T10:14:43;7.30;99.90
9437;DHT22;4757;59.334;18.034;2022-11-15T10:23:49;7.30;99.90
9437;DHT22;4757;59.334;18.034;2022-11-15T10:26:17;7.30;99.90
9437;DHT22;4757;59.334;18.034;2022-11-15T10:28:44;7.20;99.90
9437;DHT22;4757;59.334;18.034;2022-11-15T10:31:23;7.20;99.90
9437;DHT22;4757;59.334;18.034;2022-11-15T10:34:10;7.10;99.90
9437;DHT22;4757;59.334;18.034;2022-11-15T10:36:44;7.10;99.90
9437;DHT22;4757;59.334;18.034;2022-11-15T10:39:22;7.10;99.90
9437;DHT22;4757;59.334;18.034;2022-11-15T10:41:51;7.10;99.90
9437;DHT22;4757;59.334;18.034;2022-11-15T10:44:24;7.10;99.90
9437;DHT22;4757;59.334;18.034;2022-11-15T10:49:30;7.10;99.90
9437;DHT22;4757;59.334;18.034;2022-11-15T10:52:04;7.20;99.90
9437;DHT22;4757;59.334;18.034;2022-11-15T10:54:54;7.20;99.90
9437;DHT22;4757;59.334;18.034;2022-11-15T10:57:32;7.20;99.90
9437;DHT22;4757;59.334;18.034;2022-11-15T11:02:44;7.30;99.90
9437;DHT22;4757;59.334;18.034;2022-11-15T11:05:37;7.30;99.90
9437;DHT22;4757;59.334;18.034;2022-11-15T11:08:22;7.30;99.90
9437;DHT22;4757;59.334;18.034;2022-11-15T11:10:54;7.30;99.90
9437;DHT22;4757;59.334;18.034;2022-11-15T11:13:36;7.50;99.90
9437;DHT22;4757;59.334;18.034;2022-11-15T11:18:57;7.20;99.90
9437;DHT22;4757;59.334;18.034;2022-11-15T11:24:20;7.20;99.90
9437;DHT22;4757;59.334;18.034;2022-11-15T11:27:26;7.10;99.90
9437;DHT22;4757;59.334;18.034;2022-11-15T11:47:01;7.00;99.90
9437;DHT22;4757;59.334;18.034;2022-11-15T11:49:52;7.00;99.90
9437;DHT22;4757;59.334;18.034;2022-11-15T11:55:15;7.10;99.90
9437;DHT22;4757;59.334;18.034;2022-11-15T12:00:18;7.00;99.90
9437;DHT22;4757;59.334;18.034;2022-11-15T12:05:42;6.90;99.90
9437;DHT22;4757;59.334;18.034;2022-11-15T12:11:00;7.00;99.90
9437;DHT22;4757;59.334;18.034;2022-11-15T12:13:30;7.00;99.90
9437;DHT22;4757;59.334;18.034;2022-11-15T12:16:22;7.00;99.90
9437;DHT22;4757;59.334;18.034;2022-11-15T12:19:04;6.90;99.90
9437;DHT22;4757;59.334;18.034;2022-11-15T12:21:47;6.80;99.90
9437;DHT22;4757;59.334;18.034;2022-11-15T12:27:19;7.00;99.90
9437;DHT22;4757;59.334;18.034;2022-11-15T12:29:55;6.80;99.90
9437;DHT22;4757;59.334;18.034;2022-11-15T12:32:32;6.90;99.90
9437;DHT22;4757;59.334;18.034;2022-11-15T12:35:02;7.00;99.90
9437;DHT22;4757;59.334;18.034;2022-11-15T12:37:33;7.00;99.90
9437;DHT22;4757;59.334;18.034;2022-11-15T12:44:58;6.80;99.90
9437;DHT22;4757;59.334;18.034;2022-11-15T12:47:28;6.80;99.90
9437;DHT22;4757;59.334;18.034;2022-11-15T12:49:56;6.90;99.90
9437;DHT22;4757;59.334;18.034;2022-11-15T12:52:22;6.70;99.90
9437;DHT22;4757;59.334;18.034;2022-11-15T12:54:52;6.70;99.90
9437;DHT22;4757;59.334;18.034;2022-11-15T12:59:58;6.80;99.90
9437;DHT22;4757;59.334;18.034;2022-11-15T13:02:38;6.70;99.90
9437;DHT22;4757;59.334;18.034;2022-11-15T13:22:09;6.60;99.90
9437;DHT22;4757;59.334;18.034;2022-11-15T13:25:43;6.60;99.90
9437;DHT22;4757;59.334;18.034;2022-11-15T13:31:28;6.50;99.90
9437;DHT22;4757;59.334;18.034;2022-11-15T13:34:32;6.40;99.90
9437;DHT22;4757;59.334;18.034;2022-11-15T13:40:40;6.50;99.90
9437;DHT22;4757;59.334;18.034;2022-11-15T13:49:40;6.60;99.90
9437;DHT22;4757;59.334;18.034;2022-11-15T13:59:29;6.50;99.90
9437;DHT22;4757;59.334;18.034;2022-11-15T14:02:39;6.40;99.90
9437;DHT22;4757;59.334;18.034;2022-11-15T14:29:47;6.30;99.90
9437;DHT22;4757;59.334;18.034;2022-11-15T14:32:17;6.30;99.90
9437;DHT22;4757;59.334;18.034;2022-11-15T14:34:45;6.20;99.90
9437;DHT22;4757;59.334;18.034;2022-11-15T14:37:33;6.20;99.90
9437;DHT22;4757;59.334;18.034;2022-11-15T14:40:03;6.20;99.90
9437;DHT22;4757;59.334;18.034;2022-11-15T14:42:36;6.30;99.90
9437;DHT22;4757;59.334;18.034;2022-11-15T14:45:07;6.30;99.90
9437;DHT22;4757;59.334;18.034;2022-11-15T14:47:35;6.30;99.90
9437;DHT22;4757;59.334;18.034;2022-11-15T14:50:02;6.40;99.90
9437;DHT22;4757;59.334;18.034;2022-11-15T14:52:31;6.40;99.90
9437;DHT22;4757;59.334;18.034;2022-11-15T14:55:13;6.20;99.90
9437;DHT22;4757;59.334;18.034;2022-11-15T14:57:41;6.30;99.90
9437;DHT22;4757;59.334;18.034;2022-11-15T15:17:14;6.10;99.90
